sensor_id;sensor_type;location;lat;lon;timestamp;P1;durP1;ratioP1;P2;durP2;ratioP2
62574;SDS011;53112;45.602;11.904;2023-01-09T00:01:41;12.73;;;7.47;;
62574;SDS011;53112;45.602;11.904;2023-01-09T00:04:09;14.75;;;8.70;;
62574;SDS011;53112;45.602;11.904;2023-01-09T00:06:36;14.82;;;8.93;;
62574;SDS011;53112;45.602;11.904;2023-01-09T00:09:04;12.35;;;7.97;;
62574;SDS011;53112;45.602;11.904;2023-01-09T00:11:30;13.50;;;8.30;;
62574;SDS011;53112;45.602;11.904;2023-01-09T00:13:56;14.68;;;8.60;;
62574;SDS011;53112;45.602;11.904;2023-01-09T00:16:22;13.50;;;8.38;;
62574;SDS011;53112;45.602;11.904;2023-01-09T00:18:48;13.13;;;8.38;;
62574;SDS011;53112;45.602;11.904;2023-01-09T00:21:15;13.68;;;8.10;;
62574;SDS011;53112;45.602;11.904;2023-01-09T00:23:41;11.65;;;8.20;;
62574;SDS011;53112;45.602;11.904;2023-01-09T00:26:07;11.82;;;8.18;;
62574;SDS011;53112;45.602;11.904;2023-01-09T00:28:37;13.73;;;8.35;;
62574;SDS011;53112;45.602;11.904;2023-01-09T00:31:03;12.48;;;8.50;;
62574;SDS011;53112;45.602;11.904;2023-01-09T00:33:32;12.88;;;7.82;;
62574;SDS011;53112;45.602;11.904;2023-01-09T00:36:21;13.90;;;8.50;;
62574;SDS011;53112;45.602;11.904;2023-01-09T00:38:47;12.30;;;8.02;;
62574;SDS011;53112;45.602;11.904;2023-01-09T00:41:15;13.50;;;8.30;;
62574;SDS011;53112;45.602;11.904;2023-01-09T00:43:50;12.93;;;8.20;;
62574;SDS011;53112;45.602;11.904;2023-01-09T00:46:19;13.48;;;8.13;;
62574;SDS011;53112;45.602;11.904;2023-01-09T00:48:49;12.68;;;8.23;;
62574;SDS011;53112;45.602;11.904;2023-01-09T00:51:16;13.18;;;8.05;;
62574;SDS011;53112;45.602;11.904;2023-01-09T00:53:44;10.63;;;7.60;;
62574;SDS011;53112;45.602;11.904;2023-01-09T00:56:12;14.63;;;8.02;;
62574;SDS011;53112;45.602;11.904;2023-01-09T00:58:41;12.90;;;7.60;;
62574;SDS011;53112;45.602;11.904;2023-01-09T01:01:07;11.05;;;7.68;;
62574;SDS011;53112;45.602;11.904;2023-01-09T01:03:33;12.02;;;7.72;;
62574;SDS011;53112;45.602;11.904;2023-01-09T01:05:59;11.50;;;7.30;;
62574;SDS011;53112;45.602;11.904;2023-01-09T01:08:44;12.68;;;8.00;;
62574;SDS011;53112;45.602;11.904;2023-01-09T01:11:10;12.77;;;7.70;;
62574;SDS011;53112;45.602;11.904;2023-01-09T01:13:38;12.15;;;7.80;;
62574;SDS011;53112;45.602;11.904;2023-01-09T01:16:06;13.02;;;7.85;;
62574;SDS011;53112;45.602;11.904;2023-01-09T01:18:34;12.32;;;7.70;;
62574;SDS011;53112;45.602;11.904;2023-01-09T01:21:04;11.20;;;7.53;;
62574;SDS011;53112;45.602;11.904;2023-01-09T01:23:34;12.38;;;8.07;;
62574;SDS011;53112;45.602;11.904;2023-01-09T01:26:11;14.05;;;8.32;;
62574;SDS011;53112;45.602;11.904;2023-01-09T01:28:38;12.38;;;7.55;;
62574;SDS011;53112;45.602;11.904;2023-01-09T01:31:04;13.05;;;7.13;;
62574;SDS011;53112;45.602;11.904;2023-01-09T01:33:31;11.07;;;7.50;;
62574;SDS011;53112;45.602;11.904;2023-01-09T01:35:58;12.52;;;7.55;;
62574;SDS011;53112;45.602;11.904;2023-01-09T01:38:28;12.43;;;7.45;;
62574;SDS011;53112;45.602;11.904;2023-01-09T01:40:54;11.07;;;7.30;;
62574;SDS011;53112;45.602;11.904;2023-01-09T01:43:21;11.63;;;7.88;;
62574;SDS011;53112;45.602;11.904;2023-01-09T01:45:47;10.60;;;7.00;;
62574;SDS011;53112;45.602;11.904;2023-01-09T01:48:14;11.65;;;7.60;;
62574;SDS011;53112;45.602;11.904;2023-01-09T01:50:50;10.77;;;7.50;;
62574;SDS011;53112;45.602;11.904;2023-01-09T01:53:25;13.90;;;7.68;;
62574;SDS011;53112;45.602;11.904;2023-01-09T01:58:30;11.70;;;7.10;;
62574;SDS011;53112;45.602;11.904;2023-01-09T02:01:00;12.27;;;7.05;;
62574;SDS011;53112;45.602;11.904;2023-01-09T02:03:27;10.80;;;6.90;;
62574;SDS011;53112;45.602;11.904;2023-01-09T02:05:53;10.35;;;6.85;;
62574;SDS011;53112;45.602;11.904;2023-01-09T02:08:19;10.27;;;6.40;;
62574;SDS011;53112;45.602;11.904;2023-01-09T02:10:47;8.65;;;6.05;;
62574;SDS011;53112;45.602;11.904;2023-01-09T02:13:14;8.52;;;6.20;;
62574;SDS011;53112;45.602;11.904;2023-01-09T02:21:09;8.40;;;5.80;;
62574;SDS011;53112;45.602;11.904;2023-01-09T02:32:14;8.80;;;5.20;;
62574;SDS011;53112;45.602;11.904;2023-01-09T02:38:16;8.05;;;5.07;;
62574;SDS011;53112;45.602;11.904;2023-01-09T02:40:45;7.18;;;5.00;;
62574;SDS011;53112;45.602;11.904;2023-01-09T02:43:19;8.90;;;5.18;;
62574;SDS011;53112;45.602;11.904;2023-01-09T02:45:46;7.63;;;4.82;;
62574;SDS011;53112;45.602;11.904;2023-01-09T02:48:12;7.80;;;5.00;;
62574;SDS011;53112;45.602;11.904;2023-01-09T02:53:23;6.78;;;4.90;;
62574;SDS011;53112;45.602;11.904;2023-01-09T02:59:03;7.88;;;4.70;;
62574;SDS011;53112;45.602;11.904;2023-01-09T03:07:17;6.68;;;4.38;;
62574;SDS011;53112;45.602;11.904;2023-01-09T03:09:56;7.28;;;4.47;;
62574;SDS011;53112;45.602;11.904;2023-01-09T03:12:28;6.60;;;4.80;;
62574;SDS011;53112;45.602;11.904;2023-01-09T03:15:00;8.00;;;4.55;;
62574;SDS011;53112;45.602;11.904;2023-01-09T03:17:28;6.93;;;4.50;;
62574;SDS011;53112;45.602;11.904;2023-01-09T03:20:02;8.52;;;4.57;;
62574;SDS011;53112;45.602;11.904;2023-01-09T03:22:31;7.13;;;4.22;;
62574;SDS011;53112;45.602;11.904;2023-01-09T03:24:57;6.75;;;4.28;;
62574;SDS011;53112;45.602;11.904;2023-01-09T03:27:23;9.52;;;4.28;;
62574;SDS011;53112;45.602;11.904;2023-01-09T03:29:49;6.35;;;4.10;;
62574;SDS011;53112;45.602;11.904;2023-01-09T03:32:17;6.35;;;3.95;;
62574;SDS011;53112;45.602;11.904;2023-01-09T03:34:44;5.68;;;4.20;;
62574;SDS011;53112;45.602;11.904;2023-01-09T03:37:09;5.95;;;3.83;;
62574;SDS011;53112;45.602;11.904;2023-01-09T03:39:36;6.80;;;4.18;;
62574;SDS011;53112;45.602;11.904;2023-01-09T03:42:02;6.60;;;4.00;;
62574;SDS011;53112;45.602;11.904;2023-01-09T03:44:28;6.95;;;3.90;;
62574;SDS011;53112;45.602;11.904;2023-01-09T03:46:54;6.95;;;4.20;;
62574;SDS011;53112;45.602;11.904;2023-01-09T03:49:20;5.50;;;3.70;;
62574;SDS011;53112;45.602;11.904;2023-01-09T03:51:46;5.45;;;3.80;;
62574;SDS011;53112;45.602;11.904;2023-01-09T03:54:12;5.03;;;3.60;;
62574;SDS011;53112;45.602;11.904;2023-01-09T03:56:38;5.07;;;3.40;;
62574;SDS011;53112;45.602;11.904;2023-01-09T03:59:03;5.00;;;3.40;;
62574;SDS011;53112;45.602;11.904;2023-01-09T04:01:29;4.97;;;3.25;;
62574;SDS011;53112;45.602;11.904;2023-01-09T04:03:55;5.22;;;3.17;;
62574;SDS011;53112;45.602;11.904;2023-01-09T04:06:21;4.93;;;3.22;;
62574;SDS011;53112;45.602;11.904;2023-01-09T04:08:47;3.97;;;3.03;;
62574;SDS011;53112;45.602;11.904;2023-01-09T04:11:13;3.22;;;2.70;;
62574;SDS011;53112;45.602;11.904;2023-01-09T04:13:41;3.85;;;2.67;;
62574;SDS011;53112;45.602;11.904;2023-01-09T04:16:09;3.65;;;2.47;;
62574;SDS011;53112;45.602;11.904;2023-01-09T04:18:35;3.47;;;2.40;;
62574;SDS011;53112;45.602;11.904;2023-01-09T04:21:01;2.78;;;2.45;;
62574;SDS011;53112;45.602;11.904;2023-01-09T04:23:27;2.47;;;2.10;;
62574;SDS011;53112;45.602;11.904;2023-01-09T04:25:52;2.50;;;2.28;;
62574;SDS011;53112;45.602;11.904;2023-01-09T04:28:18;2.40;;;2.10;;
62574;SDS011;53112;45.602;11.904;2023-01-09T04:30:44;2.78;;;2.15;;
62574;SDS011;53112;45.602;11.904;2023-01-09T04:33:10;2.15;;;1.95;;
62574;SDS011;53112;45.602;11.904;2023-01-09T04:35:36;2.35;;;2.10;;
62574;SDS011;53112;45.602;11.904;2023-01-09T04:38:02;2.58;;;2.10;;
62574;SDS011;53112;45.602;11.904;2023-01-09T04:40:28;3.28;;;1.92;;
62574;SDS011;53112;45.602;11.904;2023-01-09T04:42:54;2.00;;;1.90;;
62574;SDS011;53112;45.602;11.904;2023-01-09T04:45:20;2.47;;;2.10;;
62574;SDS011;53112;45.602;11.904;2023-01-09T04:47:46;2.10;;;1.90;;
62574;SDS011;53112;45.602;11.904;2023-01-09T04:50:13;2.80;;;2.00;;
62574;SDS011;53112;45.602;11.904;2023-01-09T04:52:39;2.25;;;2.05;;
62574;SDS011;53112;45.602;11.904;2023-01-09T04:55:05;2.38;;;1.98;;
62574;SDS011;53112;45.602;11.904;2023-01-09T04:57:32;2.17;;;1.98;;
62574;SDS011;53112;45.602;11.904;2023-01-09T04:59:58;2.47;;;2.00;;
62574;SDS011;53112;45.602;11.904;2023-01-09T05:02:24;2.90;;;2.10;;
62574;SDS011;53112;45.602;11.904;2023-01-09T05:04:50;2.70;;;1.92;;
62574;SDS011;53112;45.602;11.904;2023-01-09T05:07:16;2.30;;;1.90;;
62574;SDS011;53112;45.602;11.904;2023-01-09T05:09:42;3.53;;;2.10;;
62574;SDS011;53112;45.602;11.904;2023-01-09T05:12:09;2.80;;;1.92;;
62574;SDS011;53112;45.602;11.904;2023-01-09T05:14:35;2.45;;;2.00;;
62574;SDS011;53112;45.602;11.904;2023-01-09T05:17:01;3.05;;;2.17;;
62574;SDS011;53112;45.602;11.904;2023-01-09T05:19:26;2.72;;;2.15;;
62574;SDS011;53112;45.602;11.904;2023-01-09T05:21:53;3.17;;;2.20;;
62574;SDS011;53112;45.602;11.904;2023-01-09T05:24:19;3.38;;;2.08;;
62574;SDS011;53112;45.602;11.904;2023-01-09T05:26:45;2.83;;;1.90;;
62574;SDS011;53112;45.602;11.904;2023-01-09T05:29:11;3.63;;;2.00;;
62574;SDS011;53112;45.602;11.904;2023-01-09T05:31:36;2.25;;;2.05;;
62574;SDS011;53112;45.602;11.904;2023-01-09T05:34:02;3.10;;;2.03;;
62574;SDS011;53112;45.602;11.904;2023-01-09T05:36:28;3.88;;;2.22;;
62574;SDS011;53112;45.602;11.904;2023-01-09T05:42:16;3.75;;;2.40;;
62574;SDS011;53112;45.602;11.904;2023-01-09T05:44:42;3.80;;;2.60;;
62574;SDS011;53112;45.602;11.904;2023-01-09T05:47:08;4.18;;;2.55;;
62574;SDS011;53112;45.602;11.904;2023-01-09T05:49:34;5.57;;;2.83;;
62574;SDS011;53112;45.602;11.904;2023-01-09T05:52:00;5.78;;;2.70;;
62574;SDS011;53112;45.602;11.904;2023-01-09T05:54:26;3.47;;;2.50;;
62574;SDS011;53112;45.602;11.904;2023-01-09T05:56:53;3.33;;;2.60;;
62574;SDS011;53112;45.602;11.904;2023-01-09T05:59:18;4.22;;;2.65;;
62574;SDS011;53112;45.602;11.904;2023-01-09T06:01:44;5.03;;;2.72;;
62574;SDS011;53112;45.602;11.904;2023-01-09T06:04:10;3.75;;;2.50;;
62574;SDS011;53112;45.602;11.904;2023-01-09T06:06:37;3.53;;;2.50;;
62574;SDS011;53112;45.602;11.904;2023-01-09T06:09:05;2.88;;;2.03;;
62574;SDS011;53112;45.602;11.904;2023-01-09T06:11:31;2.35;;;2.15;;
62574;SDS011;53112;45.602;11.904;2023-01-09T06:14:00;3.00;;;2.28;;
62574;SDS011;53112;45.602;11.904;2023-01-09T06:16:26;2.90;;;2.30;;
62574;SDS011;53112;45.602;11.904;2023-01-09T06:18:52;2.78;;;2.33;;
62574;SDS011;53112;45.602;11.904;2023-01-09T06:21:18;2.88;;;2.28;;
62574;SDS011;53112;45.602;11.904;2023-01-09T06:23:44;2.65;;;2.13;;
62574;SDS011;53112;45.602;11.904;2023-01-09T06:26:10;2.58;;;2.20;;
62574;SDS011;53112;45.602;11.904;2023-01-09T06:28:36;3.28;;;2.40;;
62574;SDS011;53112;45.602;11.904;2023-01-09T06:31:02;3.00;;;2.50;;
62574;SDS011;53112;45.602;11.904;2023-01-09T06:33:28;3.45;;;2.65;;
62574;SDS011;53112;45.602;11.904;2023-01-09T06:35:54;3.75;;;2.58;;
62574;SDS011;53112;45.602;11.904;2023-01-09T06:38:20;4.03;;;2.60;;
62574;SDS011;53112;45.602;11.904;2023-01-09T06:40:46;3.80;;;2.97;;
62574;SDS011;53112;45.602;11.904;2023-01-09T06:43:12;4.07;;;2.75;;
62574;SDS011;53112;45.602;11.904;2023-01-09T06:45:38;5.28;;;2.90;;
62574;SDS011;53112;45.602;11.904;2023-01-09T06:48:08;3.42;;;2.63;;
62574;SDS011;53112;45.602;11.904;2023-01-09T06:50:35;4.13;;;2.88;;
62574;SDS011;53112;45.602;11.904;2023-01-09T06:53:01;4.15;;;3.00;;
62574;SDS011;53112;45.602;11.904;2023-01-09T06:55:27;4.05;;;2.92;;
62574;SDS011;53112;45.602;11.904;2023-01-09T06:57:53;3.63;;;2.67;;
62574;SDS011;53112;45.602;11.904;2023-01-09T07:00:19;5.22;;;3.30;;
62574;SDS011;53112;45.602;11.904;2023-01-09T07:02:45;5.03;;;3.55;;
62574;SDS011;53112;45.602;11.904;2023-01-09T07:05:11;6.45;;;4.10;;
62574;SDS011;53112;45.602;11.904;2023-01-09T07:07:38;7.88;;;5.60;;
62574;SDS011;53112;45.602;11.904;2023-01-09T07:10:05;10.75;;;7.28;;
62574;SDS011;53112;45.602;11.904;2023-01-09T07:12:32;9.32;;;6.75;;
62574;SDS011;53112;45.602;11.904;2023-01-09T07:14:58;9.82;;;6.30;;
62574;SDS011;53112;45.602;11.904;2023-01-09T07:17:24;9.40;;;6.05;;
62574;SDS011;53112;45.602;11.904;2023-01-09T07:19:50;11.27;;;6.18;;
62574;SDS011;53112;45.602;11.904;2023-01-09T07:22:16;7.80;;;5.80;;
62574;SDS011;53112;45.602;11.904;2023-01-09T07:24:43;9.88;;;6.72;;
62574;SDS011;53112;45.602;11.904;2023-01-09T07:27:09;10.32;;;7.63;;
62574;SDS011;53112;45.602;11.904;2023-01-09T07:29:36;10.68;;;7.57;;
62574;SDS011;53112;45.602;11.904;2023-01-09T07:32:02;11.48;;;7.65;;
62574;SDS011;53112;45.602;11.904;2023-01-09T07:34:28;15.25;;;10.63;;
62574;SDS011;53112;45.602;11.904;2023-01-09T07:36:54;14.85;;;10.07;;
62574;SDS011;53112;45.602;11.904;2023-01-09T07:39:20;26.52;;;17.08;;
62574;SDS011;53112;45.602;11.904;2023-01-09T07:41:46;18.77;;;12.13;;
62574;SDS011;53112;45.602;11.904;2023-01-09T07:44:12;15.25;;;10.85;;
62574;SDS011;53112;45.602;11.904;2023-01-09T07:46:38;16.50;;;11.52;;
62574;SDS011;53112;45.602;11.904;2023-01-09T07:49:04;15.70;;;11.20;;
62574;SDS011;53112;45.602;11.904;2023-01-09T07:51:30;16.88;;;10.88;;
62574;SDS011;53112;45.602;11.904;2023-01-09T07:53:57;16.92;;;10.00;;
62574;SDS011;53112;45.602;11.904;2023-01-09T07:56:23;22.50;;;11.55;;
62574;SDS011;53112;45.602;11.904;2023-01-09T07:58:49;21.63;;;12.02;;
62574;SDS011;53112;45.602;11.904;2023-01-09T08:01:14;16.80;;;9.95;;
62574;SDS011;53112;45.602;11.904;2023-01-09T08:03:40;18.98;;;10.85;;
62574;SDS011;53112;45.602;11.904;2023-01-09T08:06:06;19.08;;;10.68;;
62574;SDS011;53112;45.602;11.904;2023-01-09T08:08:34;16.10;;;10.07;;
62574;SDS011;53112;45.602;11.904;2023-01-09T08:11:00;14.95;;;8.88;;
62574;SDS011;53112;45.602;11.904;2023-01-09T08:13:26;12.30;;;7.75;;
62574;SDS011;53112;45.602;11.904;2023-01-09T08:15:52;12.68;;;8.00;;
62574;SDS011;53112;45.602;11.904;2023-01-09T08:18:18;16.55;;;9.88;;
62574;SDS011;53112;45.602;11.904;2023-01-09T08:20:46;14.13;;;9.75;;
62574;SDS011;53112;45.602;11.904;2023-01-09T08:23:13;14.38;;;9.60;;
62574;SDS011;53112;45.602;11.904;2023-01-09T08:25:39;12.23;;;8.75;;
62574;SDS011;53112;45.602;11.904;2023-01-09T08:28:05;12.35;;;9.27;;
62574;SDS011;53112;45.602;11.904;2023-01-09T08:30:30;14.98;;;10.57;;
62574;SDS011;53112;45.602;11.904;2023-01-09T08:32:56;13.45;;;10.93;;
62574;SDS011;53112;45.602;11.904;2023-01-09T08:35:22;14.00;;;11.20;;
62574;SDS011;53112;45.602;11.904;2023-01-09T08:37:48;14.00;;;10.82;;
62574;SDS011;53112;45.602;11.904;2023-01-09T08:40:14;12.68;;;9.60;;
62574;SDS011;53112;45.602;11.904;2023-01-09T08:42:41;11.40;;;9.15;;
62574;SDS011;53112;45.602;11.904;2023-01-09T08:45:26;14.63;;;10.20;;
62574;SDS011;53112;45.602;11.904;2023-01-09T08:48:11;14.00;;;9.25;;
62574;SDS011;53112;45.602;11.904;2023-01-09T08:50:37;10.15;;;7.53;;
62574;SDS011;53112;45.602;11.904;2023-01-09T08:53:02;10.93;;;7.45;;
62574;SDS011;53112;45.602;11.904;2023-01-09T08:55:31;12.23;;;8.20;;
62574;SDS011;53112;45.602;11.904;2023-01-09T08:57:57;11.30;;;7.97;;
62574;SDS011;53112;45.602;11.904;2023-01-09T09:00:23;12.02;;;7.63;;
62574;SDS011;53112;45.602;11.904;2023-01-09T09:02:51;11.30;;;8.00;;
62574;SDS011;53112;45.602;11.904;2023-01-09T09:05:18;10.73;;;7.50;;
62574;SDS011;53112;45.602;11.904;2023-01-09T09:07:48;12.25;;;7.28;;
62574;SDS011;53112;45.602;11.904;2023-01-09T09:10:18;10.95;;;7.78;;
62574;SDS011;53112;45.602;11.904;2023-01-09T09:12:47;10.77;;;7.97;;
62574;SDS011;53112;45.602;11.904;2023-01-09T09:15:14;10.77;;;7.60;;
62574;SDS011;53112;45.602;11.904;2023-01-09T09:20:18;9.80;;;6.53;;
62574;SDS011;53112;45.602;11.904;2023-01-09T09:22:45;9.00;;;6.35;;
62574;SDS011;53112;45.602;11.904;2023-01-09T09:25:12;8.05;;;6.05;;
62574;SDS011;53112;45.602;11.904;2023-01-09T09:27:39;10.75;;;6.45;;
62574;SDS011;53112;45.602;11.904;2023-01-09T09:30:05;9.95;;;6.57;;
62574;SDS011;53112;45.602;11.904;2023-01-09T09:32:32;9.75;;;6.97;;
62574;SDS011;53112;45.602;11.904;2023-01-09T09:34:58;8.70;;;6.20;;
62574;SDS011;53112;45.602;11.904;2023-01-09T09:37:24;8.48;;;6.10;;
62574;SDS011;53112;45.602;11.904;2023-01-09T09:39:49;9.93;;;6.53;;
62574;SDS011;53112;45.602;11.904;2023-01-09T09:55:53;9.48;;;6.18;;
62574;SDS011;53112;45.602;11.904;2023-01-09T10:01:42;11.57;;;8.05;;
62574;SDS011;53112;45.602;11.904;2023-01-09T10:04:24;12.63;;;8.35;;
62574;SDS011;53112;45.602;11.904;2023-01-09T10:06:56;11.52;;;7.93;;
62574;SDS011;53112;45.602;11.904;2023-01-09T10:09:40;11.48;;;6.50;;
62574;SDS011;53112;45.602;11.904;2023-01-09T10:14:56;9.32;;;5.88;;
62574;SDS011;53112;45.602;11.904;2023-01-09T10:20:55;9.63;;;5.75;;
62574;SDS011;53112;45.602;11.904;2023-01-09T10:23:55;9.50;;;6.30;;
62574;SDS011;53112;45.602;11.904;2023-01-09T10:29:14;5.57;;;4.10;;
62574;SDS011;53112;45.602;11.904;2023-01-09T10:35:12;6.57;;;4.10;;
62574;SDS011;53112;45.602;11.904;2023-01-09T10:37:49;4.88;;;3.25;;
62574;SDS011;53112;45.602;11.904;2023-01-09T10:42:52;8.68;;;4.80;;
62574;SDS011;53112;45.602;11.904;2023-01-09T10:45:32;6.65;;;4.78;;
62574;SDS011;53112;45.602;11.904;2023-01-09T10:48:13;6.85;;;4.28;;
62574;SDS011;53112;45.602;11.904;2023-01-09T10:50:56;6.13;;;3.88;;
62574;SDS011;53112;45.602;11.904;2023-01-09T10:53:29;6.40;;;3.90;;
62574;SDS011;53112;45.602;11.904;2023-01-09T10:58:47;6.80;;;4.68;;
62574;SDS011;53112;45.602;11.904;2023-01-09T11:01:13;12.90;;;7.07;;
62574;SDS011;53112;45.602;11.904;2023-01-09T11:03:39;11.40;;;6.50;;
62574;SDS011;53112;45.602;11.904;2023-01-09T11:06:16;10.45;;;6.32;;
62574;SDS011;53112;45.602;11.904;2023-01-09T11:08:48;11.85;;;6.28;;
62574;SDS011;53112;45.602;11.904;2023-01-09T11:11:33;11.02;;;6.22;;
62574;SDS011;53112;45.602;11.904;2023-01-09T11:16:51;6.97;;;4.55;;
62574;SDS011;53112;45.602;11.904;2023-01-09T11:19:17;5.28;;;3.47;;
62574;SDS011;53112;45.602;11.904;2023-01-09T11:21:43;7.13;;;4.15;;
62574;SDS011;53112;45.602;11.904;2023-01-09T11:24:21;7.38;;;4.47;;
62574;SDS011;53112;45.602;11.904;2023-01-09T11:29:36;7.40;;;4.40;;
62574;SDS011;53112;45.602;11.904;2023-01-09T11:32:03;8.05;;;5.70;;
62574;SDS011;53112;45.602;11.904;2023-01-09T11:34:29;7.38;;;4.47;;
62574;SDS011;53112;45.602;11.904;2023-01-09T11:37:05;6.55;;;4.30;;
62574;SDS011;53112;45.602;11.904;2023-01-09T11:39:34;8.65;;;4.88;;
62574;SDS011;53112;45.602;11.904;2023-01-09T11:42:05;8.97;;;5.97;;
62574;SDS011;53112;45.602;11.904;2023-01-09T11:44:42;10.63;;;6.43;;
62574;SDS011;53112;45.602;11.904;2023-01-09T11:47:42;14.00;;;8.93;;
62574;SDS011;53112;45.602;11.904;2023-01-09T11:50:15;14.80;;;8.65;;
62574;SDS011;53112;45.602;11.904;2023-01-09T11:55:42;9.95;;;7.28;;
62574;SDS011;53112;45.602;11.904;2023-01-09T11:58:15;10.75;;;7.45;;
62574;SDS011;53112;45.602;11.904;2023-01-09T12:04:09;12.00;;;8.40;;
62574;SDS011;53112;45.602;11.904;2023-01-09T12:09:19;10.48;;;7.82;;
62574;SDS011;53112;45.602;11.904;2023-01-09T12:15:06;11.65;;;8.05;;
62574;SDS011;53112;45.602;11.904;2023-01-09T12:26:16;12.15;;;8.43;;
62574;SDS011;53112;45.602;11.904;2023-01-09T12:45:56;16.45;;;10.82;;
62574;SDS011;53112;45.602;11.904;2023-01-09T12:53:57;14.07;;;9.23;;
62574;SDS011;53112;45.602;11.904;2023-01-09T12:56:37;16.60;;;10.18;;
62574;SDS011;53112;45.602;11.904;2023-01-09T12:59:30;23.10;;;11.88;;
62574;SDS011;53112;45.602;11.904;2023-01-09T13:02:22;21.85;;;12.20;;
62574;SDS011;53112;45.602;11.904;2023-01-09T13:05:13;23.30;;;12.27;;
62574;SDS011;53112;45.602;11.904;2023-01-09T13:07:46;16.92;;;10.43;;
62574;SDS011;53112;45.602;11.904;2023-01-09T13:12:47;16.75;;;11.55;;
62574;SDS011;53112;45.602;11.904;2023-01-09T13:15:26;17.50;;;11.55;;
62574;SDS011;53112;45.602;11.904;2023-01-09T13:20:51;19.23;;;11.27;;
62574;SDS011;53112;45.602;11.904;2023-01-09T13:23:24;18.95;;;12.27;;
62574;SDS011;53112;45.602;11.904;2023-01-09T13:26:10;15.98;;;11.02;;
62574;SDS011;53112;45.602;11.904;2023-01-09T13:29:01;16.88;;;10.60;;
62574;SDS011;53112;45.602;11.904;2023-01-09T13:34:19;16.77;;;10.68;;
62574;SDS011;53112;45.602;11.904;2023-01-09T13:36:49;14.05;;;9.20;;
62574;SDS011;53112;45.602;11.904;2023-01-09T13:39:23;16.13;;;9.18;;
62574;SDS011;53112;45.602;11.904;2023-01-09T13:42:03;20.52;;;11.93;;
62574;SDS011;53112;45.602;11.904;2023-01-09T13:44:53;13.80;;;9.02;;
62574;SDS011;53112;45.602;11.904;2023-01-09T13:47:21;10.60;;;6.97;;
62574;SDS011;53112;45.602;11.904;2023-01-09T13:49:59;12.20;;;6.63;;
62574;SDS011;53112;45.602;11.904;2023-01-09T13:58:12;8.77;;;5.82;;
62574;SDS011;53112;45.602;11.904;2023-01-09T14:08:23;9.50;;;6.95;;
62574;SDS011;53112;45.602;11.904;2023-01-09T14:10:55;10.48;;;6.90;;
62574;SDS011;53112;45.602;11.904;2023-01-09T14:13:32;10.55;;;7.20;;
62574;SDS011;53112;45.602;11.904;2023-01-09T14:16:03;10.95;;;7.07;;
62574;SDS011;53112;45.602;11.904;2023-01-09T14:18:44;11.30;;;8.10;;
62574;SDS011;53112;45.602;11.904;2023-01-09T14:21:15;11.05;;;7.80;;
62574;SDS011;53112;45.602;11.904;2023-01-09T14:35:31;11.05;;;7.53;;
62574;SDS011;53112;45.602;11.904;2023-01-09T14:37:40;10.55;;;7.68;;
62574;SDS011;53112;45.602;11.904;2023-01-09T14:40:16;12.20;;;8.30;;
62574;SDS011;53112;45.602;11.904;2023-01-09T14:42:46;12.57;;;7.93;;
62574;SDS011;53112;45.602;11.904;2023-01-09T14:45:17;11.32;;;8.10;;
62574;SDS011;53112;45.602;11.904;2023-01-09T14:50:50;12.07;;;8.02;;
62574;SDS011;53112;45.602;11.904;2023-01-09T14:55:59;13.82;;;9.43;;
62574;SDS011;53112;45.602;11.904;2023-01-09T14:58:31;13.40;;;9.13;;
62574;SDS011;53112;45.602;11.904;2023-01-09T15:01:00;12.55;;;8.55;;
62574;SDS011;53112;45.602;11.904;2023-01-09T15:06:25;11.18;;;7.88;;
62574;SDS011;53112;45.602;11.904;2023-01-09T15:08:57;12.80;;;8.43;;
62574;SDS011;53112;45.602;11.904;2023-01-09T15:11:27;12.60;;;8.25;;
62574;SDS011;53112;45.602;11.904;2023-01-09T15:13:54;14.15;;;9.32;;
62574;SDS011;53112;45.602;11.904;2023-01-09T15:16:24;14.02;;;8.90;;
62574;SDS011;53112;45.602;11.904;2023-01-09T15:18:52;12.45;;;8.98;;
62574;SDS011;53112;45.602;11.904;2023-01-09T15:21:23;12.65;;;9.07;;
62574;SDS011;53112;45.602;11.904;2023-01-09T15:23:50;13.93;;;10.20;;
62574;SDS011;53112;45.602;11.904;2023-01-09T15:26:26;14.18;;;10.05;;
62574;SDS011;53112;45.602;11.904;2023-01-09T15:29:00;13.43;;;9.90;;
62574;SDS011;53112;45.602;11.904;2023-01-09T15:31:48;14.07;;;9.73;;
62574;SDS011;53112;45.602;11.904;2023-01-09T15:34:23;13.50;;;9.70;;
62574;SDS011;53112;45.602;11.904;2023-01-09T15:36:49;13.02;;;9.25;;
62574;SDS011;53112;45.602;11.904;2023-01-09T15:39:18;15.45;;;9.63;;
62574;SDS011;53112;45.602;11.904;2023-01-09T15:41:50;14.23;;;9.93;;
62574;SDS011;53112;45.602;11.904;2023-01-09T15:44:37;13.27;;;9.98;;
62574;SDS011;53112;45.602;11.904;2023-01-09T15:47:06;12.88;;;9.80;;
62574;SDS011;53112;45.602;11.904;2023-01-09T15:49:36;13.85;;;10.43;;
62574;SDS011;53112;45.602;11.904;2023-01-09T15:52:02;13.73;;;10.45;;
62574;SDS011;53112;45.602;11.904;2023-01-09T15:54:29;16.95;;;11.60;;
62574;SDS011;53112;45.602;11.904;2023-01-09T15:59:50;14.50;;;10.73;;
62574;SDS011;53112;45.602;11.904;2023-01-09T16:02:17;15.18;;;10.45;;
62574;SDS011;53112;45.602;11.904;2023-01-09T16:05:08;13.10;;;8.82;;
62574;SDS011;53112;45.602;11.904;2023-01-09T16:07:45;13.02;;;7.25;;
62574;SDS011;53112;45.602;11.904;2023-01-09T16:10:22;11.68;;;7.72;;
62574;SDS011;53112;45.602;11.904;2023-01-09T16:12:53;6.35;;;3.97;;
62574;SDS011;53112;45.602;11.904;2023-01-09T16:15:19;8.55;;;5.32;;
62574;SDS011;53112;45.602;11.904;2023-01-09T16:20:30;6.70;;;4.45;;
62574;SDS011;53112;45.602;11.904;2023-01-09T16:22:56;6.13;;;3.80;;
62574;SDS011;53112;45.602;11.904;2023-01-09T16:28:40;4.60;;;3.00;;
62574;SDS011;53112;45.602;11.904;2023-01-09T16:30:50;3.63;;;2.30;;
62574;SDS011;53112;45.602;11.904;2023-01-09T16:33:18;4.35;;;2.30;;
62574;SDS011;53112;45.602;11.904;2023-01-09T16:35:49;3.70;;;2.60;;
62574;SDS011;53112;45.602;11.904;2023-01-09T16:38:15;3.25;;;2.20;;
62574;SDS011;53112;45.602;11.904;2023-01-09T16:43:43;2.78;;;1.85;;
62574;SDS011;53112;45.602;11.904;2023-01-09T16:46:09;1.60;;;1.50;;
62574;SDS011;53112;45.602;11.904;2023-01-09T16:48:36;1.60;;;1.40;;
62574;SDS011;53112;45.602;11.904;2023-01-09T16:51:03;2.10;;;1.90;;
62574;SDS011;53112;45.602;11.904;2023-01-09T16:53:30;4.25;;;2.50;;
62574;SDS011;53112;45.602;11.904;2023-01-09T16:55:56;6.80;;;4.18;;
62574;SDS011;53112;45.602;11.904;2023-01-09T16:58:27;2.55;;;2.00;;
62574;SDS011;53112;45.602;11.904;2023-01-09T17:00:54;1.95;;;1.77;;
62574;SDS011;53112;45.602;11.904;2023-01-09T17:03:21;3.80;;;3.10;;
62574;SDS011;53112;45.602;11.904;2023-01-09T17:05:50;3.78;;;2.25;;
62574;SDS011;53112;45.602;11.904;2023-01-09T17:08:18;2.42;;;1.80;;
62574;SDS011;53112;45.602;11.904;2023-01-09T17:10:45;3.85;;;2.70;;
62574;SDS011;53112;45.602;11.904;2023-01-09T17:13:11;6.80;;;4.00;;
62574;SDS011;53112;45.602;11.904;2023-01-09T17:15:37;4.32;;;2.90;;
62574;SDS011;53112;45.602;11.904;2023-01-09T17:18:03;4.68;;;2.35;;
62574;SDS011;53112;45.602;11.904;2023-01-09T17:20:30;6.15;;;2.40;;
62574;SDS011;53112;45.602;11.904;2023-01-09T17:22:58;4.93;;;3.03;;
62574;SDS011;53112;45.602;11.904;2023-01-09T17:25:24;4.80;;;2.67;;
62574;SDS011;53112;45.602;11.904;2023-01-09T17:28:09;4.43;;;2.92;;
62574;SDS011;53112;45.602;11.904;2023-01-09T17:31:08;4.70;;;3.00;;
62574;SDS011;53112;45.602;11.904;2023-01-09T17:33:35;5.72;;;3.58;;